createdAt,value
2023-04-22T00:00:17.069Z,81.11
2023-04-22T00:02:46.882Z,80.97
2023-04-22T00:05:17.193Z,80.99
2023-04-22T00:07:48.496Z,80.83
2023-04-22T00:10:16.352Z,80.90
2023-04-22T00:12:44.340Z,80.94
2023-04-22T00:15:12.583Z,80.88
2023-04-22T00:17:41.171Z,80.91
2023-04-22T00:20:11.401Z,81.10
2023-04-22T00:22:39.496Z,80.86
2023-04-22T00:25:07.782Z,80.87
2023-04-22T00:27:36.288Z,80.39
2023-04-22T00:30:04.936Z,80.24
2023-04-22T00:32:33.186Z,80.12
2023-04-22T00:35:01.165Z,79.98
2023-04-22T00:37:29.466Z,79.66
2023-04-22T00:39:58.169Z,79.28
2023-04-22T00:42:26.539Z,79.13
2023-04-22T00:44:54.590Z,78.70
2023-04-22T00:47:27.018Z,78.69
2023-04-22T00:49:55.197Z,78.56
2023-04-22T00:52:23.156Z,78.24
2023-04-22T00:54:53.690Z,78.21
2023-04-22T00:57:21.894Z,78.03
2023-04-22T00:59:50.694Z,77.63
2023-04-22T01:02:19.390Z,77.28
2023-04-22T01:04:47.592Z,76.94
2023-04-22T01:07:15.933Z,76.36
2023-04-22T01:09:43.983Z,76.11
2023-04-22T01:12:12.034Z,75.89
2023-04-22T01:14:40.058Z,75.66
2023-04-22T01:17:10.242Z,75.32
2023-04-22T01:19:38.642Z,74.67
2023-04-22T01:22:08.175Z,74.72
2023-04-22T01:24:36.630Z,74.29
2023-04-22T01:27:04.986Z,73.89
2023-04-22T01:29:33.940Z,73.73
2023-04-22T01:32:03.123Z,73.55
2023-04-22T01:34:31.966Z,73.74
2023-04-22T01:37:00.340Z,73.65
2023-04-22T01:39:29.207Z,73.49
2023-04-22T01:41:58.557Z,73.35
2023-04-22T01:44:27.055Z,72.88
2023-04-22T01:46:57.084Z,72.65
2023-04-22T01:49:25.167Z,72.53
2023-04-22T01:51:53.210Z,72.02
2023-04-22T01:54:21.272Z,72.18
2023-04-22T01:56:52.783Z,72.03
2023-04-22T01:59:21.546Z,71.83
2023-04-22T02:01:50.551Z,71.17
2023-04-22T02:04:19.115Z,70.75
2023-04-22T02:06:47.047Z,70.66
2023-04-22T02:09:14.911Z,70.99
2023-04-22T02:11:43.747Z,71.08
2023-04-22T02:14:11.801Z,70.94
2023-04-22T02:16:41.099Z,71.37
2023-04-22T02:19:08.983Z,71.26
2023-04-22T02:21:36.866Z,71.46
2023-04-22T02:24:04.990Z,71.13
2023-04-22T02:26:32.980Z,71.20
2023-04-22T02:29:01.395Z,71.22
2023-04-22T02:31:29.747Z,71.40
2023-04-22T02:33:58.221Z,71.40
2023-04-22T02:36:27.803Z,71.45
2023-04-22T02:38:56.431Z,71.35
2023-04-22T02:41:24.473Z,71.18
2023-04-22T02:43:52.540Z,70.95
2023-04-22T02:46:21.015Z,70.77
2023-04-22T02:48:49.691Z,70.57
2023-04-22T02:51:17.756Z,70.67
2023-04-22T02:53:45.799Z,70.50
2023-04-22T02:56:13.755Z,70.73
2023-04-22T02:58:42.303Z,70.71
2023-04-22T03:01:10.449Z,70.92
2023-04-22T03:03:39.229Z,70.94
2023-04-22T03:06:08.006Z,71.04
2023-04-22T03:08:35.978Z,71.13
2023-04-22T03:11:04.793Z,71.25
2023-04-22T03:13:32.775Z,71.31
2023-04-22T03:16:00.702Z,71.34
2023-04-22T03:18:29.426Z,71.56
2023-04-22T03:20:57.479Z,71.57
2023-04-22T03:23:25.499Z,71.58
2023-04-22T03:25:53.665Z,71.77
2023-04-22T03:28:21.712Z,71.69
2023-04-22T03:30:50.787Z,71.58
2023-04-22T03:33:19.145Z,71.46
2023-04-22T03:35:55.197Z,70.98
2023-04-22T03:38:23.461Z,71.05
2023-04-22T03:40:52.117Z,70.78
2023-04-22T03:43:27.291Z,70.59
2023-04-22T03:46:01.052Z,70.22
2023-04-22T03:48:35.981Z,70.14
2023-04-22T03:51:08.407Z,70.24
2023-04-22T03:53:37.692Z,70.15
2023-04-22T03:56:06.038Z,70.11
2023-04-22T03:58:37.040Z,69.91
2023-04-22T04:01:07.972Z,69.72
2023-04-22T04:03:37.163Z,69.63
2023-04-22T04:06:05.940Z,69.42
2023-04-22T04:08:34.226Z,69.19
2023-04-22T04:11:02.548Z,68.74
2023-04-22T04:13:32.592Z,68.90
2023-04-22T04:16:20.921Z,68.67
2023-04-22T04:18:53.428Z,68.62
2023-04-22T04:21:22.080Z,68.51
2023-04-22T04:23:51.976Z,68.54
2023-04-22T04:26:24.128Z,68.39
2023-04-22T04:28:55.957Z,68.04
2023-04-22T04:31:25.180Z,67.63
2023-04-22T04:33:53.782Z,67.62
2023-04-22T04:36:22.081Z,67.49
2023-04-22T04:38:52.061Z,67.30
2023-04-22T04:41:23.521Z,67.11
2023-04-22T04:43:51.942Z,66.81
2023-04-22T04:46:29.928Z,66.66
2023-04-22T04:48:58.920Z,66.37
2023-04-22T04:51:27.756Z,65.23
2023-04-22T04:53:58.341Z,64.69
2023-04-22T04:56:27.928Z,64.48
2023-04-22T04:58:56.441Z,63.99
2023-04-22T05:01:26.622Z,63.90
2023-04-22T05:03:55.636Z,64.13
2023-04-22T05:06:24.013Z,63.63
2023-04-22T05:08:59.568Z,62.24
2023-04-22T05:11:27.710Z,62.21
2023-04-22T05:13:57.804Z,61.93
2023-04-22T05:16:33.119Z,61.34
2023-04-22T05:19:01.933Z,61.22
2023-04-22T05:21:31.599Z,60.47
2023-04-22T05:24:00.097Z,59.76
2023-04-22T05:26:28.571Z,58.95
2023-04-22T05:28:56.735Z,59.14
2023-04-22T05:31:24.947Z,58.76
2023-04-22T05:33:53.005Z,58.85
2023-04-22T05:36:21.855Z,59.02
2023-04-22T05:38:50.110Z,58.80
2023-04-22T05:41:18.124Z,58.43
2023-04-22T05:43:46.534Z,58.88
2023-04-22T05:46:17.658Z,59.05
2023-04-22T05:48:46.333Z,58.98
2023-04-22T05:51:37.345Z,58.12
2023-04-22T05:54:05.340Z,57.11
2023-04-22T05:56:33.884Z,56.46
2023-04-22T05:59:02.260Z,56.56
2023-04-22T06:01:32.102Z,56.33
2023-04-22T06:04:05.699Z,56.41
2023-04-22T06:06:34.080Z,56.34
2023-04-22T06:09:02.230Z,56.33
2023-04-22T06:11:30.405Z,56.23
2023-04-22T06:13:58.419Z,56.13
2023-04-22T06:16:26.807Z,55.77
2023-04-22T06:18:54.937Z,55.34
2023-04-22T06:21:23.635Z,55.58
2023-04-22T06:23:51.541Z,56.21
2023-04-22T06:26:19.656Z,56.21
2023-04-22T06:28:51.004Z,56.17
2023-04-22T06:31:21.334Z,55.95
2023-04-22T06:33:49.639Z,55.20
2023-04-22T06:36:18.855Z,54.91
2023-04-22T06:38:51.684Z,55.16
2023-04-22T06:41:44.616Z,54.92
2023-04-22T06:44:42.126Z,53.91
2023-04-22T06:47:34.173Z,53.13
2023-04-22T06:50:15.717Z,53.80
2023-04-22T06:52:51.574Z,54.20
2023-04-22T06:55:19.783Z,53.51
2023-04-22T06:57:47.842Z,53.09
2023-04-22T07:00:16.399Z,52.01
2023-04-22T07:02:44.543Z,50.98
2023-04-22T07:05:12.929Z,50.91
2023-04-22T07:07:41.856Z,50.24
2023-04-22T07:10:11.852Z,49.55
2023-04-22T07:12:43.237Z,48.99
2023-04-22T07:15:11.310Z,49.36
2023-04-22T07:17:39.417Z,49.96
2023-04-22T07:20:07.920Z,50.08
2023-04-22T07:22:35.979Z,50.43
2023-04-22T07:25:04.174Z,49.74
2023-04-22T07:27:32.413Z,48.96
2023-04-22T07:30:00.429Z,48.70
2023-04-22T07:32:28.510Z,48.65
2023-04-22T07:34:56.626Z,48.34
2023-04-22T07:37:24.848Z,47.78
2023-04-22T07:39:52.760Z,47.57
2023-04-22T07:42:20.863Z,47.31
2023-04-22T07:44:49.621Z,47.14
2023-04-22T07:47:17.792Z,47.18
2023-04-22T07:49:45.779Z,46.66
2023-04-22T07:52:13.906Z,46.26
2023-04-22T07:54:42.114Z,46.06
2023-04-22T07:57:10.328Z,45.82
2023-04-22T07:59:38.579Z,45.60
2023-04-22T08:02:07.922Z,45.24
2023-04-22T08:04:37.228Z,45.09
2023-04-22T08:07:17.108Z,45.24
2023-04-22T08:09:53.968Z,44.67
2023-04-22T08:12:22.548Z,43.61
2023-04-22T08:14:50.821Z,43.88
2023-04-22T08:17:22.169Z,44.19
2023-04-22T08:19:50.650Z,43.83
2023-04-22T08:22:19.082Z,43.90
2023-04-22T08:24:47.187Z,44.04
2023-04-22T08:27:15.378Z,43.51
2023-04-22T08:29:43.630Z,43.28
2023-04-22T08:32:12.078Z,43.40
2023-04-22T08:34:40.390Z,42.73
2023-04-22T08:37:09.252Z,41.50
2023-04-22T08:39:37.359Z,40.87
2023-04-22T08:42:05.554Z,40.68
2023-04-22T08:44:34.497Z,41.12
2023-04-22T08:47:03.625Z,40.91
2023-04-22T08:49:32.251Z,41.16
2023-04-22T08:52:00.565Z,41.22
2023-04-22T08:54:28.912Z,40.21
2023-04-22T08:56:57.140Z,39.84
2023-04-22T08:59:25.375Z,39.19
2023-04-22T09:01:56.577Z,39.02
2023-04-22T09:04:24.965Z,38.77
2023-04-22T09:06:53.082Z,39.03
2023-04-22T09:09:21.274Z,38.64
2023-04-22T09:11:49.353Z,37.72
2023-04-22T09:14:17.746Z,37.08
2023-04-22T09:16:48.970Z,36.68
2023-04-22T09:19:17.222Z,36.03
2023-04-22T09:21:46.506Z,35.91
2023-04-22T09:24:16.482Z,35.73
2023-04-22T09:26:44.539Z,35.71
2023-04-22T09:29:15.994Z,35.79
2023-04-22T09:31:52.893Z,34.63
2023-04-22T09:34:21.981Z,34.90
2023-04-22T09:36:50.590Z,34.00
2023-04-22T09:39:18.612Z,33.39
2023-04-22T09:41:46.647Z,32.90
2023-04-22T09:44:15.344Z,33.39
2023-04-22T09:46:43.781Z,33.81
2023-04-22T09:49:11.953Z,33.19
2023-04-22T09:51:40.338Z,32.87
2023-04-22T09:54:11.802Z,32.69
2023-04-22T09:56:46.826Z,32.09
2023-04-22T09:59:24.706Z,32.28
2023-04-22T10:01:53.363Z,32.88
2023-04-22T10:04:21.871Z,32.70
2023-04-22T10:06:50.168Z,32.78
2023-04-22T10:09:19.789Z,32.55
2023-04-22T10:11:48.388Z,32.59
2023-04-22T10:14:16.581Z,32.59
2023-04-22T10:16:46.378Z,32.05
2023-04-22T10:19:16.636Z,31.91
2023-04-22T10:21:44.982Z,32.18
2023-04-22T10:24:18.073Z,31.89
2023-04-22T10:26:50.061Z,31.59
2023-04-22T10:29:18.747Z,31.57
2023-04-22T10:32:16.356Z,30.46
2023-04-22T10:34:44.931Z,30.09
2023-04-22T10:37:13.613Z,29.99
2023-04-22T10:39:43.321Z,30.01
2023-04-22T10:42:12.179Z,30.24
2023-04-22T10:44:46.508Z,29.55
2023-04-22T10:47:34.736Z,29.60
2023-04-22T10:50:22.519Z,29.51
2023-04-22T10:52:57.363Z,29.64
2023-04-22T10:55:26.123Z,29.19
2023-04-22T10:57:55.416Z,28.72
2023-04-22T11:00:25.678Z,29.38
2023-04-22T11:03:06.171Z,29.78
2023-04-22T11:05:36.198Z,29.67
2023-04-22T11:08:24.049Z,29.44
2023-04-22T11:10:52.249Z,29.50
2023-04-22T11:13:21.527Z,29.73
2023-04-22T11:15:50.200Z,29.38
2023-04-22T11:18:25.263Z,28.19
2023-04-22T11:20:53.798Z,28.58
2023-04-22T11:23:25.792Z,28.30
2023-04-22T11:25:54.359Z,28.22
2023-04-22T11:28:23.163Z,28.67
2023-04-22T11:30:51.533Z,28.62
2023-04-22T11:33:19.541Z,28.45
2023-04-22T11:35:49.091Z,28.58
2023-04-22T11:38:17.078Z,28.46
2023-04-22T11:40:46.963Z,28.43
2023-04-22T11:43:16.481Z,28.57
2023-04-22T11:45:44.571Z,29.16
2023-04-22T11:48:12.574Z,29.12
2023-04-22T11:50:41.152Z,29.05
2023-04-22T11:53:19.165Z,28.96
2023-04-22T11:55:48.146Z,29.21
2023-04-22T11:58:20.546Z,29.57
2023-04-22T12:00:49.387Z,29.75
2023-04-22T12:03:21.669Z,29.24
2023-04-22T12:05:53.622Z,29.08
2023-04-22T12:08:22.540Z,28.62
2023-04-22T12:10:57.012Z,29.16
2023-04-22T12:13:26.112Z,29.20
2023-04-22T12:15:55.228Z,29.43
2023-04-22T12:18:32.897Z,29.42
2023-04-22T12:21:03.034Z,29.56
2023-04-22T12:23:31.908Z,30.01
2023-04-22T12:26:01.972Z,30.08
2023-04-22T12:28:30.957Z,30.06
2023-04-22T12:30:59.541Z,30.19
2023-04-22T12:33:27.925Z,30.29
2023-04-22T12:35:56.061Z,30.60
2023-04-22T12:38:24.013Z,30.48
2023-04-22T12:40:54.077Z,30.65
2023-04-22T12:43:22.090Z,30.78
2023-04-22T12:45:50.363Z,30.79
2023-04-22T12:48:18.376Z,30.63
2023-04-22T12:50:46.563Z,30.56
2023-04-22T12:53:14.823Z,30.45
2023-04-22T12:55:45.455Z,30.27
2023-04-22T12:58:14.794Z,30.08
2023-04-22T13:00:42.993Z,30.10
2023-04-22T13:03:11.729Z,30.50
2023-04-22T13:05:40.540Z,30.62
2023-04-22T13:08:08.493Z,29.99
2023-04-22T13:10:36.625Z,29.84
2023-04-22T13:15:36.704Z,29.61
2023-04-22T13:18:04.583Z,29.35
2023-04-22T13:20:32.579Z,29.21
2023-04-22T13:23:02.520Z,29.11
2023-04-22T13:25:30.797Z,29.19
2023-04-22T13:27:58.797Z,29.24
2023-04-22T13:30:26.931Z,29.52
2023-04-22T13:32:54.901Z,29.84
2023-04-22T13:35:23.222Z,29.63
2023-04-22T13:37:51.472Z,29.65
2023-04-22T13:40:19.650Z,29.38
2023-04-22T13:42:47.861Z,29.69
2023-04-22T13:45:15.990Z,30.09
2023-04-22T13:47:43.974Z,30.55
2023-04-22T13:50:12.096Z,30.38
2023-04-22T13:52:40.512Z,30.03
2023-04-22T13:55:08.861Z,29.88
2023-04-22T13:57:37.038Z,29.53
2023-04-22T14:00:05.478Z,29.10
2023-04-22T14:02:40.061Z,29.15
2023-04-22T14:05:10.612Z,29.31
2023-04-22T14:07:38.872Z,29.62
2023-04-22T14:10:08.712Z,29.57
2023-04-22T14:12:38.180Z,28.61
2023-04-22T14:15:06.641Z,28.64
2023-04-22T14:17:35.164Z,28.62
2023-04-22T14:20:05.191Z,28.98
2023-04-22T14:22:33.446Z,28.79
2023-04-22T14:25:01.889Z,29.02
2023-04-22T14:27:30.433Z,29.59
2023-04-22T14:29:58.494Z,29.83
2023-04-22T14:32:26.513Z,29.84
2023-04-22T14:34:55.404Z,29.87
2023-04-22T14:37:23.926Z,29.88
2023-04-22T14:39:52.287Z,29.92
2023-04-22T14:42:20.692Z,29.86
2023-04-22T14:44:48.777Z,29.53
2023-04-22T14:47:16.932Z,28.96
2023-04-22T14:49:45.318Z,28.86
2023-04-22T14:52:13.388Z,28.69
2023-04-22T14:54:41.631Z,28.29
2023-04-22T14:57:09.733Z,28.17
2023-04-22T14:59:37.749Z,28.15
2023-04-22T15:02:06.423Z,28.39
2023-04-22T15:04:34.615Z,28.71
2023-04-22T15:07:03.654Z,29.27
2023-04-22T15:09:33.123Z,29.06
2023-04-22T15:12:04.920Z,29.17
2023-04-22T15:14:35.594Z,29.59
2023-04-22T15:17:03.722Z,29.54
2023-04-22T15:19:31.907Z,29.65
2023-04-22T15:22:00.006Z,29.67
2023-04-22T15:24:28.133Z,29.37
2023-04-22T15:26:57.002Z,29.71
2023-04-22T15:29:25.117Z,30.00
2023-04-22T15:31:54.567Z,30.07
2023-04-22T15:34:23.686Z,29.97
2023-04-22T15:36:51.708Z,29.92
2023-04-22T15:39:19.953Z,30.22
2023-04-22T15:41:47.968Z,30.59
2023-04-22T15:44:16.916Z,30.84
2023-04-22T15:46:45.804Z,30.98
2023-04-22T15:49:15.015Z,31.00
2023-04-22T15:51:43.437Z,31.02
2023-04-22T15:54:12.227Z,31.09
2023-04-22T15:56:40.755Z,31.15
2023-04-22T15:59:08.775Z,31.30
2023-04-22T16:01:38.193Z,31.44
2023-04-22T16:04:07.197Z,31.62
2023-04-22T16:06:36.694Z,31.98
2023-04-22T16:09:05.405Z,32.10
2023-04-22T16:11:33.740Z,32.23
2023-04-22T16:14:01.700Z,32.40
2023-04-22T16:16:29.760Z,32.72
2023-04-22T16:18:58.432Z,32.93
2023-04-22T16:21:26.481Z,33.19
2023-04-22T16:23:54.426Z,33.34
2023-04-22T16:26:22.361Z,33.42
2023-04-22T16:28:51.419Z,33.76
2023-04-22T16:31:22.867Z,33.98
2023-04-22T16:33:51.394Z,34.11
2023-04-22T16:36:19.666Z,34.43
2023-04-22T16:38:48.905Z,34.50
2023-04-22T16:41:16.995Z,34.43
2023-04-22T16:43:45.162Z,34.30
2023-04-22T16:46:13.378Z,34.33
2023-04-22T16:48:41.519Z,34.33
2023-04-22T16:51:09.736Z,34.58
2023-04-22T16:53:37.952Z,34.78
2023-04-22T16:56:06.352Z,34.87
2023-04-22T16:58:35.360Z,35.34
2023-04-22T17:01:04.009Z,35.57
2023-04-22T17:03:32.998Z,35.54
2023-04-22T17:06:02.354Z,35.52
2023-04-22T17:08:31.443Z,36.06
2023-04-22T17:10:59.835Z,36.27
2023-04-22T17:13:27.866Z,36.48
2023-04-22T17:15:56.164Z,36.48
2023-04-22T17:18:24.316Z,36.68
2023-04-22T17:20:52.301Z,36.57
2023-04-22T17:23:23.135Z,36.23
2023-04-22T17:25:51.393Z,36.93
2023-04-22T17:28:20.270Z,36.74
2023-04-22T17:30:48.554Z,37.44
2023-04-22T17:33:18.074Z,38.21
2023-04-22T17:35:47.852Z,38.88
2023-04-22T17:38:16.126Z,39.06
2023-04-22T17:40:44.912Z,39.62
2023-04-22T17:43:13.157Z,40.25
2023-04-22T17:45:41.300Z,40.67
2023-04-22T17:48:09.304Z,41.09
2023-04-22T17:50:37.962Z,41.12
2023-04-22T17:53:06.326Z,41.05
2023-04-22T17:55:35.456Z,41.01
2023-04-22T17:58:05.662Z,41.08
2023-04-22T18:00:35.626Z,41.41
2023-04-22T18:03:04.390Z,41.42
2023-04-22T18:05:32.789Z,41.40
2023-04-22T18:08:02.994Z,41.01
2023-04-22T18:10:31.572Z,40.80
2023-04-22T18:12:59.971Z,40.93
2023-04-22T18:15:28.370Z,40.92
2023-04-22T18:17:56.510Z,40.53
2023-04-22T18:20:24.504Z,40.67
2023-04-22T18:22:52.702Z,40.45
2023-04-22T18:25:21.069Z,40.31
2023-04-22T18:27:50.743Z,40.74
2023-04-22T18:30:18.773Z,41.82
2023-04-22T18:32:47.113Z,42.60
2023-04-22T18:35:16.252Z,42.51
2023-04-22T18:37:44.547Z,42.56
2023-04-22T18:40:12.727Z,41.82
2023-04-22T18:42:44.974Z,41.20
2023-04-22T18:45:13.308Z,40.90
2023-04-22T18:47:47.492Z,40.45
2023-04-22T18:50:15.979Z,40.35
2023-04-22T18:52:44.067Z,40.37
2023-04-22T18:55:12.281Z,40.43
2023-04-22T18:57:41.573Z,40.28
2023-04-22T19:00:10.279Z,40.33
2023-04-22T19:02:41.515Z,40.56
2023-04-22T19:05:10.868Z,40.74
2023-04-22T19:07:41.234Z,40.56
2023-04-22T19:10:10.407Z,40.36
2023-04-22T19:12:38.427Z,40.11
2023-04-22T19:15:07.038Z,39.95
2023-04-22T19:17:35.639Z,39.97
2023-04-22T19:20:06.145Z,39.78
2023-04-22T19:22:34.696Z,39.73
2023-04-22T19:25:02.663Z,40.62
2023-04-22T19:27:30.961Z,41.70
2023-04-22T19:29:58.939Z,42.79
2023-04-22T19:32:26.996Z,42.74
2023-04-22T19:34:55.317Z,41.31
2023-04-22T19:37:23.923Z,41.13
2023-04-22T19:39:51.859Z,41.38
2023-04-22T19:42:20.992Z,40.76
2023-04-22T19:44:49.137Z,40.62
2023-04-22T19:47:17.465Z,40.82
2023-04-22T19:49:46.309Z,40.88
2023-04-22T19:52:15.810Z,40.92
2023-04-22T19:54:45.938Z,40.59
2023-04-22T19:57:15.684Z,40.52
2023-04-22T19:59:43.569Z,40.46
2023-04-22T20:02:11.829Z,40.90
2023-04-22T20:04:41.238Z,41.03
2023-04-22T20:07:09.392Z,40.97
2023-04-22T20:09:38.885Z,40.74
2023-04-22T20:12:07.041Z,40.41
2023-04-22T20:14:35.112Z,40.15
2023-04-22T20:17:03.197Z,40.38
2023-04-22T20:19:31.662Z,40.18
2023-04-22T20:22:00.034Z,40.23
2023-04-22T20:24:28.575Z,40.27
2023-04-22T20:26:56.815Z,40.43
2023-04-22T20:29:25.686Z,40.44
2023-04-22T20:31:55.778Z,40.35
2023-04-22T20:34:24.408Z,40.44
2023-04-22T20:36:54.897Z,40.67
2023-04-22T20:39:23.038Z,40.72
2023-04-22T20:41:52.933Z,40.64
2023-04-22T20:44:21.086Z,40.57
2023-04-22T20:46:49.062Z,40.49
2023-04-22T20:49:17.538Z,40.46
2023-04-22T20:51:45.587Z,40.48
2023-04-22T20:54:27.903Z,40.56
2023-04-22T20:56:58.007Z,40.80
2023-04-22T20:59:26.165Z,41.22
2023-04-22T21:01:54.854Z,41.42
2023-04-22T21:04:24.127Z,41.63
2023-04-22T21:06:52.879Z,41.43
2023-04-22T21:09:21.069Z,41.65
2023-04-22T21:11:50.296Z,41.53
2023-04-22T21:14:24.310Z,41.21
2023-04-22T21:16:53.997Z,41.30
2023-04-22T21:19:22.042Z,41.36
2023-04-22T21:21:50.236Z,41.37
2023-04-22T21:24:18.489Z,41.53
2023-04-22T21:26:47.399Z,41.88
2023-04-22T21:29:15.552Z,41.95
2023-04-22T21:31:51.503Z,41.82
2023-04-22T21:34:32.931Z,41.58
2023-04-22T21:37:00.902Z,41.69
2023-04-22T21:39:29.440Z,41.69
2023-04-22T21:41:58.467Z,41.70
2023-04-22T21:44:26.514Z,41.76
2023-04-22T21:46:54.445Z,41.91
2023-04-22T21:49:23.297Z,42.01
2023-04-22T21:51:51.478Z,41.93
2023-04-22T21:54:19.400Z,41.96
2023-04-22T21:56:47.479Z,42.10
2023-04-22T21:59:15.478Z,42.15
2023-04-22T22:01:43.429Z,42.29
2023-04-22T22:04:13.982Z,42.16
2023-04-22T22:06:44.231Z,42.67
2023-04-22T22:09:15.336Z,45.11
2023-04-22T22:11:44.193Z,46.78
2023-04-22T22:14:12.216Z,46.87
2023-04-22T22:16:40.399Z,47.10
2023-04-22T22:19:11.258Z,48.01
2023-04-22T22:21:39.166Z,47.85
2023-04-22T22:24:09.484Z,47.30
2023-04-22T22:26:41.194Z,47.19
2023-04-22T22:29:15.546Z,48.37
2023-04-22T22:31:43.993Z,47.95
2023-04-22T22:34:11.895Z,46.56
2023-04-22T22:36:40.436Z,46.20
2023-04-22T22:39:10.457Z,46.05
2023-04-22T22:41:39.135Z,45.76
2023-04-22T22:44:08.159Z,45.59
2023-04-22T22:46:36.136Z,45.44
2023-04-22T22:49:04.383Z,45.29
2023-04-22T22:51:32.863Z,45.19
2023-04-22T22:54:01.094Z,45.27
2023-04-22T22:56:29.416Z,45.33
2023-04-22T22:58:57.452Z,45.73
2023-04-22T23:01:25.738Z,46.22
2023-04-22T23:03:53.869Z,46.23
2023-04-22T23:06:22.088Z,46.31
2023-04-22T23:08:50.340Z,46.87
2023-04-22T23:11:18.600Z,47.26
2023-04-22T23:13:47.933Z,47.88
2023-04-22T23:16:16.591Z,48.05
2023-04-22T23:18:44.771Z,48.13
2023-04-22T23:21:12.847Z,48.32
2023-04-22T23:23:40.832Z,48.59
2023-04-22T23:26:09.157Z,48.74
2023-04-22T23:28:37.197Z,48.82
2023-04-22T23:31:05.287Z,49.12
2023-04-22T23:33:34.424Z,49.74
2023-04-22T23:36:03.502Z,50.07
2023-04-22T23:38:31.559Z,50.48
2023-04-22T23:40:59.575Z,50.92
2023-04-22T23:43:27.540Z,51.08
2023-04-22T23:45:55.825Z,51.51
2023-04-22T23:48:24.049Z,51.72
2023-04-22T23:50:52.151Z,52.05
2023-04-22T23:53:20.341Z,52.26
2023-04-22T23:55:48.810Z,52.62
2023-04-22T23:58:17.130Z,52.97
